Time;durP1;ratioP1;P1;durP2;ratioP2;P2;SDS_P1;SDS_P2;PMS_P1;PMS_P2;Temp;Humidity;BMP_temperature;BMP_pressure;BME280_temperature;BME280_humidity;BME280_pressure;Samples;Min_cycle;Max_cycle;Signal;HPM_P1;HPM_P2
2023/08/04 00:01:12;;;;;;;8.32;2.65;;;15.40;99.90;;;;;;6203515;23;20451;-77
2023/08/04 00:03:38;;;;;;;8.07;2.28;;;15.40;99.90;;;;;;6203416;23;20147;-78
2023/08/04 00:06:10;;;;;;;3.65;2.30;;;15.50;99.90;;;;;;6231064;23;20012;-78
2023/08/04 00:08:36;;;;;;;3.58;2.28;;;15.50;99.90;;;;;;6205262;23;20087;-78
2023/08/04 00:11:02;;;;;;;4.60;2.60;;;15.50;99.90;;;;;;6205544;23;20101;-77
2023/08/04 00:13:29;;;;;;;4.45;1.92;;;15.50;99.90;;;;;;6232373;23;20036;-79
2023/08/04 00:15:55;;;;;;;5.93;2.28;;;15.50;99.90;;;;;;6232116;23;20608;-78
2023/08/04 00:18:20;;;;;;;4.25;2.30;;;15.50;99.90;;;;;;6204596;23;20083;-78
2023/08/04 00:20:46;;;;;;;4.30;2.55;;;15.50;99.90;;;;;;6203668;23;20799;-78
2023/08/04 00:23:12;;;;;;;4.53;2.00;;;15.50;99.90;;;;;;6204309;23;20008;-79
2023/08/04 00:25:37;;;;;;;3.88;2.30;;;15.60;99.90;;;;;;6205072;23;20005;-79
2023/08/04 00:28:03;;;;;;;4.32;2.22;;;15.50;99.90;;;;;;6205296;23;20061;-78
2023/08/04 00:30:28;;;;;;;4.70;2.10;;;15.60;99.90;;;;;;6204998;23;20443;-78
2023/08/04 00:32:54;;;;;;;7.55;2.17;;;15.60;99.90;;;;;;6205857;23;20008;-78
2023/08/04 00:35:20;;;;;;;11.07;2.20;;;15.60;99.90;;;;;;6205353;23;20039;-78
2023/08/04 00:37:45;;;;;;;5.60;2.20;;;15.60;99.90;;;;;;6232307;23;20000;-77
2023/08/04 00:40:11;;;;;;;5.35;2.22;;;15.60;99.90;;;;;;6204962;23;20040;-78
2023/08/04 00:42:37;;;;;;;5.35;2.47;;;15.60;99.90;;;;;;6233424;23;20458;-78
2023/08/04 00:45:04;;;;;;;4.57;2.22;;;15.60;99.90;;;;;;6205335;23;20447;-78
2023/08/04 00:47:35;;;;;;;4.78;2.10;;;15.60;99.90;;;;;;6205706;23;20012;-78
2023/08/04 00:50:04;;;;;;;3.23;2.10;;;15.60;99.90;;;;;;6232792;23;20522;-79
2023/08/04 00:52:31;;;;;;;3.80;2.20;;;15.60;99.90;;;;;;6205793;23;20466;-78
2023/08/04 00:54:56;;;;;;;4.07;2.10;;;15.60;99.90;;;;;;6205120;23;20283;-78
2023/08/04 00:57:22;;;;;;;4.32;2.25;;;15.70;99.90;;;;;;6205418;23;20009;-78
2023/08/04 00:59:48;;;;;;;5.63;2.10;;;15.70;99.90;;;;;;6205426;23;20008;-77
2023/08/04 01:02:14;;;;;;;5.28;2.30;;;15.60;99.90;;;;;;6205338;23;20015;-78
2023/08/04 01:04:39;;;;;;;3.85;2.17;;;15.60;99.90;;;;;;6205571;23;20098;-78
2023/08/04 01:07:11;;;;;;;6.25;2.47;;;15.70;99.90;;;;;;6202398;23;20019;-78
2023/08/04 01:10:01;;;;;;;4.47;2.30;;;15.70;99.90;;;;;;6230303;23;20004;-79
2023/08/04 01:12:32;;;;;;;6.78;2.10;;;15.60;99.90;;;;;;6203117;23;20039;-77
2023/08/04 01:14:58;;;;;;;;;;;15.60;99.90;;;;;;6229748;23;20074;-78
2023/08/04 01:17:29;;;;;;;6.57;2.22;;;15.60;99.90;;;;;;6229292;23;19903;-78
2023/08/04 01:19:55;;;;;;;3.45;2.00;;;15.60;99.90;;;;;;6230385;23;20030;-78
2023/08/04 01:22:22;;;;;;;4.80;2.40;;;15.60;99.90;;;;;;6202400;23;20023;-78
2023/08/04 01:24:48;;;;;;;4.32;2.10;;;15.60;99.90;;;;;;6203521;23;20103;-77
2023/08/04 01:27:21;;;;;;;5.68;2.05;;;15.60;99.90;;;;;;6203735;23;20468;-78
2023/08/04 01:29:47;;;;;;;4.55;2.50;;;15.60;99.90;;;;;;6204496;23;20015;-77
2023/08/04 01:32:12;;;;;;;4.82;2.30;;;15.60;99.90;;;;;;6204230;23;20012;-77
2023/08/04 01:34:41;;;;;;;4.72;2.42;;;15.60;99.90;;;;;;6227153;23;20019;-77
2023/08/04 01:37:08;;;;;;;4.35;2.20;;;15.60;99.90;;;;;;6201029;23;19997;-77
2023/08/04 01:39:34;;;;;;;4.55;2.33;;;15.60;99.90;;;;;;6203090;23;20004;-78
2023/08/04 01:41:59;;;;;;;4.50;2.10;;;15.60;99.90;;;;;;6205976;23;20027;-78
2023/08/04 01:44:25;;;;;;;4.82;2.53;;;15.60;99.90;;;;;;6232918;23;20004;-78
2023/08/04 01:46:50;;;;;;;3.90;1.95;;;15.60;99.90;;;;;;6232704;23;20008;-77
2023/08/04 01:49:16;;;;;;;4.65;2.30;;;15.60;99.90;;;;;;6202475;23;20042;-78
2023/08/04 01:51:41;;;;;;;7.57;2.30;;;15.60;99.90;;;;;;6202927;23;20452;-78
2023/08/04 01:54:07;;;;;;;4.70;2.40;;;15.60;99.90;;;;;;6204083;23;20095;-78
2023/08/04 01:56:33;;;;;;;6.82;2.60;;;15.60;99.90;;;;;;6231342;23;20022;-79
2023/08/04 01:58:58;;;;;;;4.55;2.70;;;15.50;99.90;;;;;;6202565;23;20011;-78
2023/08/04 02:01:24;;;;;;;3.38;2.05;;;15.60;99.90;;;;;;6203334;23;20036;-78
2023/08/04 02:03:49;;;;;;;2.95;1.83;;;15.60;99.90;;;;;;6205043;23;20470;-78
2023/08/04 02:06:15;;;;;;;6.05;2.22;;;15.60;99.90;;;;;;6204895;23;20016;-77
2023/08/04 02:08:41;;;;;;;8.02;2.88;;;15.50;99.90;;;;;;6203751;23;20035;-77
2023/08/04 02:11:07;;;;;;;3.42;2.60;;;15.50;99.90;;;;;;6205155;23;20004;-77
2023/08/04 02:13:33;;;;;;;4.47;2.50;;;15.50;99.90;;;;;;6205187;23;20008;-78
2023/08/04 02:15:58;;;;;;;4.93;2.40;;;15.50;99.90;;;;;;6206288;23;20012;-78
2023/08/04 02:18:24;;;;;;;7.65;2.58;;;15.50;99.90;;;;;;6232655;23;20015;-78
2023/08/04 02:20:50;;;;;;;7.38;2.30;;;15.50;99.90;;;;;;6228967;23;20106;-78
2023/08/04 02:23:15;;;;;;;6.63;2.10;;;15.50;99.90;;;;;;6201786;23;20111;-77
2023/08/04 02:25:41;;;;;;;6.25;2.80;;;15.50;99.90;;;;;;6228906;23;20081;-78
2023/08/04 02:28:07;;;;;;;5.03;2.47;;;15.40;99.90;;;;;;6229160;23;20376;-78
2023/08/04 02:30:33;;;;;;;7.25;2.00;;;15.40;99.90;;;;;;6202824;23;20008;-78
2023/08/04 02:32:59;;;;;;;6.80;2.58;;;15.40;99.90;;;;;;6204462;23;20086;-78
2023/08/04 02:35:24;;;;;;;5.90;2.40;;;15.40;99.90;;;;;;6202610;23;20241;-78
2023/08/04 02:37:50;;;;;;;5.97;2.25;;;15.40;99.90;;;;;;6204093;23;20019;-77
2023/08/04 02:40:15;;;;;;;3.40;1.92;;;15.40;99.90;;;;;;6203758;23;20094;-78
2023/08/04 02:42:41;;;;;;;3.08;2.00;;;15.40;99.90;;;;;;6204169;23;20123;-78
2023/08/04 02:45:07;;;;;;;4.90;2.33;;;15.30;99.90;;;;;;6231160;23;20004;-78
2023/08/04 02:47:33;;;;;;;3.67;2.15;;;15.30;99.90;;;;;;6203371;23;20464;-77
2023/08/04 02:49:58;;;;;;;3.40;2.03;;;15.30;99.90;;;;;;6203571;23;20046;-78
2023/08/04 02:52:24;;;;;;;4.75;2.13;;;15.30;99.90;;;;;;6230184;23;20012;-77
2023/08/04 02:54:55;;;;;;;4.20;2.25;;;15.20;99.90;;;;;;6204129;23;20020;-78
2023/08/04 02:57:20;;;;;;;3.15;2.55;;;15.20;99.90;;;;;;6203485;23;20004;-78
2023/08/04 02:59:46;;;;;;;6.07;2.05;;;15.30;99.90;;;;;;6204237;23;20066;-78
2023/08/04 03:02:11;;;;;;;4.80;2.20;;;15.20;99.90;;;;;;6203812;23;20451;-77
2023/08/04 03:04:39;;;;;;;3.92;2.28;;;15.20;99.90;;;;;;6202009;22;20690;-77
2023/08/04 03:07:05;;;;;;;7.40;2.40;;;15.20;99.90;;;;;;6229034;23;20082;-78
2023/08/04 03:09:31;;;;;;;4.28;2.60;;;15.20;99.90;;;;;;6231153;23;20016;-78
2023/08/04 03:11:56;;;;;;;6.47;2.28;;;15.10;99.90;;;;;;6231234;23;20079;-77
2023/08/04 03:14:22;;;;;;;4.95;2.35;;;15.10;99.90;;;;;;6203657;23;20126;-78
2023/08/04 03:16:49;;;;;;;4.10;2.08;;;15.10;99.90;;;;;;6230774;23;20581;-78
2023/08/04 03:19:17;;;;;;;6.95;2.53;;;15.10;99.90;;;;;;6231118;23;20016;-78
2023/08/04 03:21:43;;;;;;;7.50;2.60;;;15.10;99.90;;;;;;6232685;23;20081;-77
2023/08/04 03:24:09;;;;;;;6.88;2.78;;;15.10;99.90;;;;;;6204401;23;20012;-77
2023/08/04 03:26:34;;;;;;;8.13;2.45;;;15.20;99.90;;;;;;6230937;23;20000;-78
2023/08/04 03:29:00;;;;;;;4.18;2.30;;;15.20;99.90;;;;;;6203779;23;20448;-78
2023/08/04 03:31:25;;;;;;;4.75;2.40;;;15.20;99.90;;;;;;6204842;23;20008;-78
2023/08/04 03:33:51;;;;;;;6.82;2.38;;;15.10;99.90;;;;;;6230756;23;20094;-78
2023/08/04 03:36:16;;;;;;;7.50;2.55;;;15.20;99.90;;;;;;6230310;23;20102;-77
2023/08/04 03:38:42;;;;;;;5.18;2.28;;;15.20;99.90;;;;;;6203110;23;20067;-77
2023/08/04 03:41:08;;;;;;;5.22;2.20;;;15.10;99.90;;;;;;6230978;23;20386;-77
2023/08/04 03:43:33;;;;;;;7.22;2.50;;;15.20;99.90;;;;;;6230581;23;20396;-77
2023/08/04 03:45:59;;;;;;;5.20;2.10;;;15.10;99.90;;;;;;6202651;23;20423;-77
2023/08/04 03:48:24;;;;;;;5.57;2.42;;;15.10;99.90;;;;;;6230482;23;20096;-77
2023/08/04 03:50:50;;;;;;;3.67;2.30;;;15.10;99.90;;;;;;6204567;23;20012;-77
2023/08/04 03:53:15;;;;;;;5.88;2.25;;;15.00;99.90;;;;;;6204862;23;20012;-78
2023/08/04 03:55:42;;;;;;;4.75;2.60;;;15.10;99.90;;;;;;6205058;23;20012;-78
2023/08/04 03:58:07;;;;;;;5.65;2.20;;;15.00;99.90;;;;;;6205380;23;20039;-78
2023/08/04 04:00:33;;;;;;;8.07;2.60;;;15.00;99.90;;;;;;6204177;23;20344;-78
2023/08/04 04:02:58;;;;;;;4.78;2.50;;;14.90;99.90;;;;;;6232726;23;20004;-77
2023/08/04 04:05:24;;;;;;;3.78;2.40;;;14.90;99.90;;;;;;6232057;23;20012;-78
2023/08/04 04:07:49;;;;;;;5.95;2.38;;;14.90;99.90;;;;;;6231360;23;20097;-77
2023/08/04 04:10:15;;;;;;;5.88;2.28;;;14.90;99.90;;;;;;6230118;23;20008;-77
2023/08/04 04:12:40;;;;;;;5.82;2.22;;;14.90;99.90;;;;;;6231375;23;20008;-77
2023/08/04 04:15:07;;;;;;;3.10;2.35;;;14.90;99.90;;;;;;6204171;23;20035;-77
2023/08/04 04:17:32;;;;;;;5.38;2.50;;;15.00;99.90;;;;;;6197218;23;20000;-77
2023/08/04 04:19:58;;;;;;;6.07;2.42;;;15.00;99.90;;;;;;6225283;23;20151;-77
2023/08/04 04:22:24;;;;;;;6.30;2.47;;;15.00;99.90;;;;;;6205142;23;20012;-78
2023/08/04 04:24:49;;;;;;;2.83;2.15;;;15.00;99.90;;;;;;6229396;23;20050;-78
2023/08/04 04:27:15;;;;;;;5.47;2.47;;;15.00;99.90;;;;;;6201235;23;20015;-78
2023/08/04 04:29:40;;;;;;;4.40;2.30;;;15.00;99.90;;;;;;6229464;23;20012;-78
2023/08/04 04:32:07;;;;;;;4.55;2.30;;;15.00;99.90;;;;;;6199666;23;20054;-78
2023/08/04 04:34:32;;;;;;;4.28;2.60;;;15.00;99.90;;;;;;6228150;23;20012;-78
2023/08/04 04:36:58;;;;;;;5.97;2.40;;;15.00;99.90;;;;;;6201365;23;20053;-77
2023/08/04 04:39:25;;;;;;;4.40;2.90;;;15.00;99.90;;;;;;6205763;23;20016;-78
2023/08/04 04:41:50;;;;;;;6.88;2.28;;;15.00;99.90;;;;;;6230233;23;20414;-77
2023/08/04 04:44:16;;;;;;;5.30;2.35;;;15.00;99.90;;;;;;6199972;23;20012;-77
2023/08/04 04:46:41;;;;;;;4.03;1.92;;;15.00;99.90;;;;;;6229035;23;20023;-77
2023/08/04 04:49:07;;;;;;;3.80;2.17;;;15.00;99.90;;;;;;6201920;23;20015;-77
2023/08/04 04:51:33;;;;;;;3.90;2.40;;;15.00;99.90;;;;;;6227094;23;20000;-78
2023/08/04 04:53:58;;;;;;;5.10;2.50;;;15.00;99.90;;;;;;6227710;23;20016;-77
2023/08/04 04:56:24;;;;;;;6.07;2.70;;;15.00;99.90;;;;;;6227849;23;20764;-78
2023/08/04 04:58:50;;;;;;;5.82;2.63;;;15.00;99.90;;;;;;6228095;23;20069;-78
2023/08/04 05:01:16;;;;;;;3.30;2.40;;;15.00;99.90;;;;;;6200599;23;20004;-78
2023/08/04 05:03:42;;;;;;;6.53;2.05;;;15.10;99.90;;;;;;6199114;23;20019;-77
2023/08/04 05:06:07;;;;;;;4.93;2.10;;;15.10;99.90;;;;;;6201046;22;20099;-78
2023/08/04 05:08:33;;;;;;;5.75;2.75;;;15.10;99.90;;;;;;6200742;23;20117;-78
2023/08/04 05:10:58;;;;;;;6.63;2.47;;;15.10;99.90;;;;;;6201891;23;20062;-78
2023/08/04 05:13:24;;;;;;;5.13;2.50;;;15.20;99.90;;;;;;6229436;23;20012;-77
2023/08/04 05:15:50;;;;;;;6.70;2.25;;;15.30;99.90;;;;;;6200471;23;20016;-78
2023/08/04 05:18:16;;;;;;;3.80;2.40;;;15.20;99.90;;;;;;6200815;23;20775;-77
2023/08/04 05:20:45;;;;;;;7.05;2.50;;;15.30;99.90;;;;;;6227536;23;20000;-77
2023/08/04 05:23:11;;;;;;;4.55;2.65;;;15.30;99.90;;;;;;6231082;23;20012;-77
2023/08/04 05:25:37;;;;;;;7.03;2.80;;;15.40;99.90;;;;;;6230924;23;20199;-78
2023/08/04 05:28:32;;;;;;;5.35;2.63;;;15.50;99.90;;;;;;6201151;23;20024;-77
2023/08/04 05:31:00;;;;;;;7.75;2.67;;;15.60;99.90;;;;;;6199928;23;20062;-78
2023/08/04 05:33:27;;;;;;;3.40;2.20;;;15.70;99.90;;;;;;6201373;23;20090;-78
2023/08/04 05:35:53;;;;;;;7.95;2.10;;;15.80;99.90;;;;;;6201463;23;20045;-78
2023/08/04 05:38:19;;;;;;;4.95;2.42;;;15.90;99.90;;;;;;6203763;23;20066;-77
2023/08/04 05:40:46;;;;;;;6.25;2.40;;;16.00;99.90;;;;;;6203509;23;20043;-78
2023/08/04 05:43:13;;;;;;;3.92;2.20;;;16.10;99.90;;;;;;6202261;23;20046;-77
2023/08/04 05:45:41;;;;;;;5.35;2.30;;;16.30;99.90;;;;;;6201719;23;20061;-77
2023/08/04 05:48:07;;;;;;;2.95;2.17;;;16.50;99.90;;;;;;6230700;23;20456;-77
2023/08/04 05:50:33;;;;;;;5.25;2.17;;;16.60;99.90;;;;;;6202053;23;20042;-77
2023/08/04 05:52:59;;;;;;;6.32;2.95;;;16.70;99.90;;;;;;6229975;23;20004;-78
2023/08/04 05:55:24;;;;;;;5.47;3.20;;;16.80;99.90;;;;;;6202621;23;20012;-77
2023/08/04 05:57:50;;;;;;;8.30;2.83;;;16.90;99.90;;;;;;6202203;23;20054;-78
2023/08/04 06:00:17;;;;;;;9.25;2.78;;;17.10;99.90;;;;;;6201738;23;20012;-78
2023/08/04 06:02:44;;;;;;;6.60;2.88;;;17.10;99.90;;;;;;6202865;23;20004;-77
2023/08/04 06:05:13;;;;;;;6.38;2.33;;;17.20;99.90;;;;;;6199040;23;20076;-77
2023/08/04 06:07:40;;;;;;;22.48;13.07;;;17.20;99.90;;;;;;6227254;23;20023;-77
2023/08/04 06:10:07;;;;;;;7.72;3.55;;;17.40;99.90;;;;;;6230702;23;20020;-77
2023/08/04 06:12:33;;;;;;;5.38;3.13;;;17.60;99.90;;;;;;6203153;23;20023;-78
2023/08/04 06:14:59;;;;;;;9.32;3.10;;;17.70;99.90;;;;;;6203386;23;20115;-77
2023/08/04 06:17:24;;;;;;;8.18;3.47;;;18.00;99.90;;;;;;6203770;23;20073;-77
2023/08/04 06:19:50;;;;;;;8.73;3.38;;;18.20;99.90;;;;;;6204662;23;20129;-77
2023/08/04 06:22:15;;;;;;;6.15;3.40;;;18.20;99.90;;;;;;6204158;23;20015;-77
2023/08/04 06:24:42;;;;;;;7.10;3.08;;;18.20;99.90;;;;;;6231000;23;20181;-77
2023/08/04 06:27:08;;;;;;;10.70;6.38;;;18.40;99.90;;;;;;6204263;23;20004;-77
2023/08/04 06:29:34;;;;;;;8.13;3.67;;;18.30;99.90;;;;;;6232072;23;20004;-77
2023/08/04 06:32:00;;;;;;;8.88;3.10;;;18.10;99.90;;;;;;6204804;23;20008;-77
2023/08/04 06:34:26;;;;;;;7.18;3.45;;;17.90;99.90;;;;;;6204724;23;20533;-77
2023/08/04 06:36:51;;;;;;;6.82;3.75;;;17.90;99.90;;;;;;6203565;23;20008;-76
2023/08/04 06:39:17;;;;;;;4.82;3.40;;;18.00;99.90;;;;;;6203183;23;20120;-77
2023/08/04 06:41:44;;;;;;;19.88;9.98;;;17.90;99.90;;;;;;6202568;23;20012;-77
2023/08/04 06:44:12;;;;;;;10.82;4.78;;;17.80;99.90;;;;;;6228519;23;20004;-77
2023/08/04 06:46:37;;;;;;;12.63;4.00;;;17.80;99.90;;;;;;6232062;23;20810;-77
2023/08/04 06:49:03;;;;;;;11.55;4.20;;;17.70;99.90;;;;;;6230749;23;20039;-77
2023/08/04 06:51:28;;;;;;;9.05;3.75;;;17.90;99.90;;;;;;6204639;23;20616;-77
2023/08/04 06:53:54;;;;;;;6.85;3.80;;;17.90;99.90;;;;;;6203059;23;20087;-77
2023/08/04 06:56:19;;;;;;;50.05;31.80;;;18.00;99.90;;;;;;6231202;23;20004;-76
2023/08/04 06:58:45;;;;;;;14.80;9.27;;;17.90;99.90;;;;;;6205172;23;20058;-77
2023/08/04 07:01:10;;;;;;;8.20;4.60;;;18.00;99.90;;;;;;6203504;23;20019;-77
2023/08/04 07:03:36;;;;;;;7.80;4.10;;;18.10;99.90;;;;;;6205313;23;20611;-77
2023/08/04 07:06:01;;;;;;;8.75;3.88;;;18.20;99.90;;;;;;6232510;22;20034;-78
2023/08/04 07:08:27;;;;;;;7.40;3.80;;;18.20;99.90;;;;;;6233065;23;20004;-78
2023/08/04 07:10:53;;;;;;;6.53;3.75;;;18.30;99.90;;;;;;6232779;23;20004;-78
2023/08/04 07:13:18;;;;;;;10.13;3.80;;;18.30;99.90;;;;;;6205769;23;20387;-77
2023/08/04 07:15:55;;;;;;;13.48;4.07;;;18.30;99.90;;;;;;6203765;23;20016;-78
2023/08/04 07:18:21;;;;;;;8.45;4.00;;;18.40;99.90;;;;;;6205623;23;20011;-77
2023/08/04 07:20:46;;;;;;;14.55;4.13;;;18.00;99.90;;;;;;6231932;23;20053;-78
2023/08/04 07:23:12;;;;;;;7.53;3.40;;;18.00;99.90;;;;;;6204508;23;20093;-78
2023/08/04 07:25:37;;;;;;;8.07;3.78;;;18.00;99.90;;;;;;6231686;23;20008;-77
2023/08/04 07:28:03;;;;;;;10.13;3.90;;;18.10;99.90;;;;;;6231183;23;20747;-78
2023/08/04 07:30:30;;;;;;;7.68;3.88;;;18.20;99.90;;;;;;6229729;23;20043;-78
2023/08/04 07:32:55;;;;;;;8.40;3.80;;;18.20;99.90;;;;;;6232671;23;20064;-78
2023/08/04 07:35:21;;;;;;;7.50;3.20;;;18.20;99.90;;;;;;6232634;23;20083;-78
2023/08/04 07:37:46;;;;;;;8.05;3.72;;;18.30;99.90;;;;;;6205341;23;20077;-78
2023/08/04 07:40:13;;;;;;;9.40;3.53;;;18.60;99.90;;;;;;6205722;23;20008;-78
2023/08/04 07:42:39;;;;;;;7.88;3.60;;;18.90;99.90;;;;;;6205171;23;20444;-77
2023/08/04 07:45:05;;;;;;;10.00;3.40;;;19.10;99.90;;;;;;6204586;23;20079;-78
2023/08/04 07:47:30;;;;;;;5.88;3.25;;;19.20;99.90;;;;;;6204151;23;20016;-78
2023/08/04 07:49:56;;;;;;;9.25;4.00;;;19.30;99.90;;;;;;6203049;23;20414;-78
2023/08/04 07:52:21;;;;;;;7.10;3.75;;;19.20;99.90;;;;;;6201267;23;20000;-78
2023/08/04 07:54:47;;;;;;;8.60;4.00;;;19.10;99.90;;;;;;6198983;23;20051;-78
2023/08/04 07:57:12;;;;;;;12.45;4.28;;;19.20;99.90;;;;;;6225636;23;20000;-77
2023/08/04 07:59:38;;;;;;;5.65;3.67;;;19.20;99.90;;;;;;6200163;23;20079;-78
2023/08/04 08:02:04;;;;;;;9.15;3.55;;;19.30;99.90;;;;;;6226304;23;20075;-77
2023/08/04 08:04:29;;;;;;;10.18;3.60;;;19.50;99.90;;;;;;6201634;23;20110;-78
2023/08/04 08:06:55;;;;;;;10.13;3.67;;;19.60;99.90;;;;;;6229771;23;20000;-77
2023/08/04 08:09:21;;;;;;;8.18;3.10;;;20.40;99.90;;;;;;6203452;23;20008;-78
2023/08/04 08:11:46;;;;;;;10.52;3.45;;;22.40;99.90;;;;;;6229891;23;20011;-78
2023/08/04 08:14:12;;;;;;;6.38;2.58;;;24.60;99.90;;;;;;6201314;23;20585;-77
2023/08/04 08:16:37;;;;;;;5.90;2.38;;;26.70;99.90;;;;;;6225635;23;20023;-78
2023/08/04 08:19:03;;;;;;;6.28;2.28;;;27.70;97.60;;;;;;6201211;23;20099;-78
2023/08/04 08:21:30;;;;;;;8.63;2.97;;;28.10;94.10;;;;;;6225370;23;20009;-77
2023/08/04 08:23:56;;;;;;;7.63;2.70;;;27.00;93.60;;;;;;6223283;23;20034;-78
2023/08/04 08:26:22;;;;;;;4.80;2.30;;;26.50;97.70;;;;;;6225333;23;20007;-77
2023/08/04 08:28:47;;;;;;;8.25;2.67;;;25.40;99.90;;;;;;6223768;23;20360;-77
2023/08/04 08:31:13;;;;;;;7.40;2.58;;;24.50;99.90;;;;;;6224932;23;20447;-77
2023/08/04 08:33:39;;;;;;;5.15;2.80;;;23.70;99.90;;;;;;6224912;23;20008;-78
2023/08/04 08:36:06;;;;;;;4.82;2.65;;;23.40;99.90;;;;;;6198844;23;20119;-78
2023/08/04 08:38:31;;;;;;;6.55;2.95;;;23.00;99.90;;;;;;6226406;23;20008;-77
2023/08/04 08:40:57;;;;;;;7.68;3.10;;;22.70;99.90;;;;;;6199217;23;20095;-77
2023/08/04 08:43:23;;;;;;;6.68;2.72;;;22.60;99.90;;;;;;6195373;23;20039;-77
2023/08/04 08:45:50;;;;;;;6.35;2.53;;;22.30;99.90;;;;;;6219413;23;20008;-78
2023/08/04 08:48:16;;;;;;;6.28;2.72;;;22.80;99.90;;;;;;6198992;23;20011;-77
2023/08/04 08:50:43;;;;;;;7.45;2.47;;;24.50;99.90;;;;;;6199129;23;20004;-77
2023/08/04 08:53:12;;;;;;;5.63;2.20;;;26.50;99.90;;;;;;6225791;23;20054;-77
2023/08/04 08:55:39;;;;;;;5.50;2.15;;;29.10;96.70;;;;;;6225906;23;20033;-78
2023/08/04 08:58:05;;;;;;;6.13;2.30;;;32.20;82.30;;;;;;6229287;23;20455;-78
2023/08/04 09:00:33;;;;;;;3.90;1.65;;;34.90;68.90;;;;;;6227541;23;20139;-77
2023/08/04 09:02:58;;;;;;;6.55;1.88;;;36.60;54.60;;;;;;6202226;23;20015;-77
2023/08/04 09:05:24;;;;;;;4.22;1.60;;;38.10;50.60;;;;;;6226267;23;20526;-77
2023/08/04 09:07:50;;;;;;;6.47;1.90;;;38.90;46.80;;;;;;6229599;23;20419;-78
2023/08/04 09:10:16;;;;;;;3.88;1.60;;;39.50;44.80;;;;;;6230588;23;20436;-77
2023/08/04 09:12:44;;;;;;;6.40;1.40;;;39.40;42.40;;;;;;6201798;23;20004;-78
2023/08/04 09:15:10;;;;;;;5.45;1.65;;;39.70;43.30;;;;;;6202013;23;20428;-77
2023/08/04 09:17:38;;;;;;;5.45;2.05;;;38.10;42.70;;;;;;6201548;23;20087;-78
2023/08/04 09:20:05;;;;;;;6.05;1.80;;;34.60;46.30;;;;;;6203657;23;20045;-77
2023/08/04 09:22:34;;;;;;;3.58;1.95;;;34.00;48.50;;;;;;6202183;23;20119;-81
2023/08/04 09:25:02;;;;;;;9.48;2.10;;;34.50;48.90;;;;;;6233417;23;20015;-86
2023/08/04 09:27:37;;;;;;;3.95;1.70;;;32.60;48.50;;;;;;6211248;23;20008;-91
2023/08/04 09:30:05;;;;;;;5.72;2.28;;;31.70;52.90;;;;;;6208492;23;20008;-89
2023/08/04 09:32:34;;;;;;;6.93;2.00;;;30.50;53.50;;;;;;6238430;23;20047;-90
2023/08/04 09:35:03;;;;;;;6.88;2.00;;;29.70;56.90;;;;;;6234738;23;20077;-89
2023/08/04 09:37:31;;;;;;;5.30;2.35;;;29.20;58.10;;;;;;6235383;23;20011;-87
2023/08/04 09:39:57;;;;;;;4.78;1.95;;;28.10;59.20;;;;;;6208172;23;20086;-86
2023/08/04 09:42:22;;;;;;;3.22;2.42;;;27.80;63.70;;;;;;6235371;23;20004;-81
2023/08/04 09:44:52;;;;;;;8.85;4.50;;;27.60;66.80;;;;;;6231515;23;20008;-76
2023/08/04 09:47:22;;;;;;;10.27;4.35;;;29.00;71.70;;;;;;6229142;23;20093;-77
2023/08/04 09:49:48;;;;;;;9.17;4.73;;;31.00;60.10;;;;;;6230274;23;20090;-77
2023/08/04 09:52:39;;;;;;;7.57;3.53;;;32.20;58.20;;;;;;6230168;23;20425;-77
2023/08/04 09:55:10;;;;;;;8.45;3.20;;;32.90;54.30;;;;;;6223290;23;20016;-78
2023/08/04 09:57:36;;;;;;;5.85;2.70;;;30.90;54.10;;;;;;6229307;23;20028;-77
2023/08/04 10:00:04;;;;;;;5.07;3.10;;;29.50;60.00;;;;;;6229044;23;20099;-77
2023/08/04 10:02:30;;;;;;;10.30;4.10;;;28.60;62.00;;;;;;6203145;23;20126;-76
2023/08/04 10:04:56;;;;;;;6.43;3.05;;;27.80;66.90;;;;;;6228800;22;20054;-77
2023/08/04 10:07:23;;;;;;;5.32;2.97;;;26.80;69.60;;;;;;6228784;23;20677;-78
2023/08/04 10:09:49;;;;;;;7.72;3.05;;;26.30;76.20;;;;;;6228913;23;20407;-77
2023/08/04 10:12:16;;;;;;;3.92;2.47;;;25.50;87.20;;;;;;6228669;23;20011;-76
2023/08/04 10:14:43;;;;;;;5.07;2.33;;;25.40;91.20;;;;;;6230245;23;20550;-79
2023/08/04 10:17:09;;;;;;;6.22;2.58;;;25.60;96.40;;;;;;6229527;23;20007;-78
2023/08/04 10:19:35;;;;;;;5.28;2.17;;;26.20;95.50;;;;;;6229107;23;20083;-78
2023/08/04 10:22:07;;;;;;;4.70;2.13;;;28.00;90.70;;;;;;6230650;23;20012;-78
2023/08/04 10:24:37;;;;;;;4.03;1.77;;;29.50;77.70;;;;;;6228916;23;20130;-77
2023/08/04 10:27:17;;;;;;;3.95;1.48;;;31.10;67.80;;;;;;6230607;23;20321;-80
2023/08/04 10:29:43;;;;;;;6.38;1.95;;;32.00;63.90;;;;;;6230854;23;20011;-81
2023/08/04 10:32:09;;;;;;;3.80;1.70;;;31.50;60.60;;;;;;6232471;23;20032;-81
2023/08/04 10:34:35;;;;;;;5.63;1.55;;;30.00;63.50;;;;;;6231803;23;20328;-81
2023/08/04 10:37:09;;;;;;;6.05;2.13;;;29.20;69.90;;;;;;6234793;23;20012;-80
2023/08/04 10:39:41;;;;;;;6.05;2.00;;;28.10;69.10;;;;;;6234133;23;20008;-80
2023/08/04 10:42:23;;;;;;;4.32;2.13;;;27.20;72.00;;;;;;6234231;23;20027;-80
2023/08/04 10:45:05;;;;;;;2.53;1.48;;;26.40;74.80;;;;;;6235060;23;20008;-80
2023/08/04 10:47:30;;;;;;;6.10;2.03;;;26.80;82.10;;;;;;6244864;23;19988;-79
2023/08/04 10:49:58;;;;;;;3.55;1.65;;;28.80;80.40;;;;;;6236628;23;20094;-79
2023/08/04 10:52:24;;;;;;;4.85;2.00;;;29.80;70.60;;;;;;6231844;23;20301;-81
2023/08/04 10:54:52;;;;;;;4.53;2.15;;;30.20;68.50;;;;;;6232393;23;20351;-80
2023/08/04 10:57:22;;;;;;;4.55;2.13;;;30.50;65.50;;;;;;6233845;23;20017;-80
2023/08/04 10:59:48;;;;;;;3.75;1.67;;;29.90;66.10;;;;;;6236149;23;20004;-81
2023/08/04 11:02:22;;;;;;;6.22;2.00;;;29.30;66.90;;;;;;6235052;23;20023;-80
2023/08/04 11:04:48;;;;;;;4.38;1.83;;;28.50;72.10;;;;;;6228083;22;20020;-79
2023/08/04 11:07:15;;;;;;;3.60;1.90;;;28.10;73.00;;;;;;6234172;23;20442;-82
2023/08/04 11:09:42;;;;;;;3.72;1.70;;;28.50;73.50;;;;;;6235499;23;20082;-81
2023/08/04 11:12:09;;;;;;;4.25;1.45;;;28.40;65.10;;;;;;6234226;23;20103;-81
2023/08/04 11:14:35;;;;;;;3.85;1.73;;;29.00;68.90;;;;;;6233140;23;20440;-82
2023/08/04 11:17:02;;;;;;;3.08;1.38;;;29.50;63.40;;;;;;6233198;23;20138;-81
2023/08/04 11:19:32;;;;;;;2.80;1.48;;;30.30;67.00;;;;;;6232952;23;20031;-81
2023/08/04 11:22:07;;;;;;;3.03;1.30;;;31.30;63.20;;;;;;6204133;23;20436;-81
2023/08/04 11:24:32;;;;;;;3.65;1.60;;;31.60;61.30;;;;;;6232841;23;20016;-81
2023/08/04 11:26:58;;;;;;;5.60;1.73;;;31.30;60.40;;;;;;6233180;23;20004;-80
2023/08/04 11:29:25;;;;;;;3.80;1.70;;;30.90;64.30;;;;;;6230426;23;20004;-81
2023/08/04 11:31:51;;;;;;;9.95;1.90;;;30.20;62.30;;;;;;6232412;23;20008;-81
2023/08/04 11:34:17;;;;;;;8.50;2.00;;;30.10;63.80;;;;;;6230600;23;20034;-80
2023/08/04 11:36:43;;;;;;;3.42;1.45;;;29.50;66.60;;;;;;6234052;23;20019;-81
2023/08/04 11:39:09;;;;;;;4.05;1.63;;;29.30;64.10;;;;;;6232131;23;20034;-81
2023/08/04 11:41:36;;;;;;;3.42;1.83;;;29.10;69.10;;;;;;6233744;23;20096;-82
2023/08/04 11:44:02;;;;;;;4.28;1.50;;;28.70;67.80;;;;;;6233165;23;20004;-81
2023/08/04 11:46:28;;;;;;;5.03;1.38;;;27.90;69.30;;;;;;6233014;23;20034;-81
2023/08/04 11:48:54;;;;;;;5.47;1.65;;;27.60;70.80;;;;;;6234181;23;20023;-81
2023/08/04 11:51:21;;;;;;;2.75;1.20;;;27.80;69.20;;;;;;6233862;23;20012;-81
2023/08/04 11:53:46;;;;;;;2.85;1.48;;;28.40;70.60;;;;;;6234141;23;20032;-81
2023/08/04 11:56:12;;;;;;;2.75;1.58;;;29.00;71.90;;;;;;6234124;23;20445;-82
2023/08/04 11:58:45;;;;;;;4.72;1.88;;;30.10;72.00;;;;;;6207522;23;20165;-80
2023/08/04 12:01:29;;;;;;;3.20;1.42;;;31.00;74.30;;;;;;6205569;23;20588;-82
2023/08/04 12:03:56;;;;;;;2.97;1.52;;;31.50;67.80;;;;;;6219926;23;20118;-73
2023/08/04 12:06:23;;;;;;;2.95;1.58;;;31.80;64.10;;;;;;6223548;23;20028;-73
2023/08/04 12:09:09;;;;;;;3.88;1.00;;;31.90;62.50;;;;;;6225177;23;20157;-73
2023/08/04 12:11:49;;;;;;;3.88;1.58;;;31.40;59.00;;;;;;6226344;23;20491;-73
2023/08/04 12:14:14;;;;;;;4.53;1.77;;;30.60;60.70;;;;;;6225885;23;20139;-73
2023/08/04 12:17:00;;;;;;;2.42;1.50;;;29.80;61.10;;;;;;6227012;23;20106;-73
2023/08/04 12:24:36;;;;;;;1.95;1.30;;;28.20;72.40;;;;;;6195854;22;20358;-82
2023/08/04 12:27:02;;;;;;;3.22;1.75;;;27.90;69.50;;;;;;6226610;23;20001;-82
2023/08/04 12:29:28;;;;;;;4.57;1.75;;;28.40;69.70;;;;;;6228539;23;20004;-82
2023/08/04 12:31:54;;;;;;;6.10;1.90;;;28.80;69.40;;;;;;6227764;23;20100;-82
2023/08/04 12:34:19;;;;;;;4.22;1.98;;;29.00;67.70;;;;;;6227040;23;20044;-82
2023/08/04 12:36:45;;;;;;;2.63;1.40;;;29.30;71.40;;;;;;6228205;23;20012;-82
2023/08/04 12:39:12;;;;;;;4.22;1.50;;;30.20;71.30;;;;;;6227380;23;20063;-81
2023/08/04 12:41:38;;;;;;;2.25;1.48;;;29.80;58.70;;;;;;6227044;23;20000;-81
2023/08/04 12:44:04;;;;;;;2.80;1.52;;;29.40;62.50;;;;;;6226743;23;20015;-82
2023/08/04 12:46:29;;;;;;;2.95;1.70;;;29.50;68.70;;;;;;6227086;23;20036;-81
2023/08/04 12:48:56;;;;;;;3.60;1.60;;;29.50;73.90;;;;;;6227906;23;20380;-82